CST,Max TemperatureF,Mean TemperatureF,Min TemperatureF,Max Dew PointF,MeanDew PointF,Min DewpointF,Max Humidity, Mean Humidity, Min Humidity, Max Sea Level PressureIn, Mean Sea Level PressureIn, Min Sea Level PressureIn, Max VisibilityMiles, Mean VisibilityMiles, Min VisibilityMiles, Max Wind SpeedMPH, Mean Wind SpeedMPH, Max Gust SpeedMPH,PrecipitationIn, CloudCover, Events, WindDirDegrees
2012-12-1,37,34,30,37,34,30,100,100,100,30.14,29.90,29.74,2,1,0,13,6,18,0.03,8,Fog-Snow,173
2012-12-2,37,34,32,37,34,32,100,100,100,29.97,29.91,29.76,5,2,0,10,5,16,0.00,8,Fog-Snow,258
2012-12-3,53,42,32,54,41,32,100,97,81,29.94,29.73,29.55,10,3,0,17,9,30,0.02,7,Fog-Rain,193
2012-12-4,37,29,21,32,19,7,87,67,40,30.26,29.97,29.73,10,10,5,21,13,32,0.00,2,Snow,290
2012-12-5,32,26,21,21,16,14,86,66,48,30.36,30.23,30.03,10,10,10,13,7,20,0.00,5,Snow,174
2012-12-6,35,32,30,36,29,21,100,87,69,30.03,29.82,29.71,10,7,1,14,9,22,0.03,8,Rain-Snow,220
2012-12-7,28,26,24,25,20,19,86,77,69,29.98,29.94,29.84,10,10,5,10,6,,0.00,7,,325
2012-12-8,28,21,14,23,18,12,100,89,64,30.10,30.01,29.96,10,9,3,6,1,,0.00,4,Snow,347
2012-12-9,28,24,19,27,21,16,100,85,74,30.15,29.97,29.75,10,7,2,13,5,17,0.00,7,Snow,76
2012-12-10,26,22,19,23,21,18,100,88,69,29.81,29.77,29.73,10,9,3,10,3,,0.00,8,Snow,352
2012-12-11,23,18,14,21,13,10,100,81,73,29.93,29.78,29.71,10,8,3,15,7,20,0.00,8,Snow,229
2012-12-12,35,22,10,23,16,7,92,74,60,30.05,29.98,29.91,10,10,5,13,7,20,0.01,5,Snow,195
2012-12-13,35,32,28,27,22,19,86,65,52,30.08,29.97,29.93,10,10,7,12,7,20,0.00,4,,242
2012-12-14,32,29,26,28,25,23,93,84,75,30.15,30.09,30.00,10,10,7,13,5,20,0.00,8,,126
2012-12-15,33,32,30,34,32,28,100,99,93,29.99,29.70,29.49,10,5,2,15,9,21,0.10,8,Rain-Snow,125
2012-12-16,33,30,28,34,32,28,100,100,100,29.61,29.53,29.48,10,4,0,10,3,,0.10,8,Fog-Rain-Snow,301
2012-12-17,28,26,23,28,22,19,100,91,80,29.67,29.64,29.61,10,10,7,10,6,,0.00,8,Snow,307
2012-12-18,28,22,15,21,19,16,100,87,69,29.75,29.67,29.63,10,10,10,6,1,,0.00,7,,108
2012-12-19,28,19,10,28,21,9,100,99,92,29.99,29.91,29.76,10,7,2,8,1,,0.00,6,,234
2012-12-20,32,29,26,32,28,27,100,99,93,29.93,29.68,29.54,7,3,1,25,8,34,0.00,8,Snow,12
2012-12-21,26,22,19,27,18,14,100,83,74,30.07,29.93,29.65,10,7,2,24,17,33,0.00,8,Snow,335
2012-12-22,30,16,1,21,9,-2,100,75,44,30.08,29.95,29.85,10,10,10,15,4,21,0.00,2,,268
2012-12-23,21,13,5,18,10,1,100,79,63,29.99,29.96,29.89,10,9,4,15,9,23,0.00,7,Snow,333
2012-12-24,21,16,12,14,10,5,93,81,63,30.10,29.96,29.91,10,8,2,12,3,,0.00,8,Snow,317
2012-12-25,19,6,-7,10,5,-15,92,82,68,30.34,30.26,30.10,10,6,0,7,3,,0.00,5,Snow,321
2012-12-26,21,6,-9,16,5,-15,92,80,68,30.31,30.22,30.16,10,10,7,7,1,,0.00,5,Snow,20
2012-12-27,21,19,17,14,11,10,80,73,63,30.18,30.15,30.10,10,10,5,14,7,,0.00,7,Snow,41
2012-12-28,23,20,17,19,15,12,100,84,68,30.10,30.00,29.90,10,8,2,9,3,,0.00,8,Snow,62
2012-12-29,21,14,8,18,14,9,100,89,74,30.00,29.93,29.90,10,6,1,12,3,,0.00,8,Snow,275
2012-12-30,21,14,8,16,10,3,86,76,63,30.09,29.97,29.79,10,9,4,10,6,,0.00,4,Snow,225
2012-12-31,21,12,1,16,7,0,92,75,62,30.05,29.94,29.78,10,8,2,18,10,25,0.00,7,Snow,303